Terminal Aerodrome Forecast
Issued by NWS

Home | Current Version | Previous Version | Graphics & Text | Print | Product List | Glossary On
Versions: 1 2 3 4 5 6 7 8 9 10 11 12
457
FTUS42 KMHX 211736
TAFOAJ
TAF
KOAJ 211736Z 2118/2218 VRB04KT P6SM BKN040
     FM220000 VRB03KT P6SM VCSH BKN050
     FM220600 00000KT 6SM -SHRA SCT020 OVC050
     FM221000 VRB03KT P6SM SCT009 BKN020
     FM221400 33007KT P6SM BKN040
     FM221700 34008KT P6SM SCT150
      AMD LTD TO CLD VIS AND WIND=

USA.gov is the U.S. government's official web portal to all federal, state and local government web resources and services.